sensor_id;sensor_type;location;lat;lon;timestamp;temperature;humidity
68746;SHT31;73143;45.456;11.064;2023-11-21T00:01:02;10.01;74.35
68746;SHT31;73143;45.456;11.064;2023-11-21T00:03:40;9.98;74.74
68746;SHT31;73143;45.456;11.064;2023-11-21T00:06:17;9.92;74.99
68746;SHT31;73143;45.456;11.064;2023-11-21T00:08:54;9.85;75.28
68746;SHT31;73143;45.456;11.064;2023-11-21T00:11:31;9.82;75.40
68746;SHT31;73143;45.456;11.064;2023-11-21T00:14:09;9.81;75.24
68746;SHT31;73143;45.456;11.064;2023-11-21T00:16:46;9.82;75.12
68746;SHT31;73143;45.456;11.064;2023-11-21T00:19:24;9.81;74.95
68746;SHT31;73143;45.456;11.064;2023-11-21T00:22:01;9.83;74.84
68746;SHT31;73143;45.456;11.064;2023-11-21T00:24:39;9.85;74.91
68746;SHT31;73143;45.456;11.064;2023-11-21T00:27:16;9.86;75.02
68746;SHT31;73143;45.456;11.064;2023-11-21T00:29:53;9.87;74.89
68746;SHT31;73143;45.456;11.064;2023-11-21T00:32:29;9.88;74.70
68746;SHT31;73143;45.456;11.064;2023-11-21T00:35:07;9.90;74.66
68746;SHT31;73143;45.456;11.064;2023-11-21T00:37:46;9.90;74.61
68746;SHT31;73143;45.456;11.064;2023-11-21T00:40:23;9.92;74.61
68746;SHT31;73143;45.456;11.064;2023-11-21T00:43:02;9.95;74.49
68746;SHT31;73143;45.456;11.064;2023-11-21T00:45:38;9.98;74.23
68746;SHT31;73143;45.456;11.064;2023-11-21T00:48:17;10.00;74.38
68746;SHT31;73143;45.456;11.064;2023-11-21T00:50:54;10.01;74.31
68746;SHT31;73143;45.456;11.064;2023-11-21T00:53:30;10.02;74.22
68746;SHT31;73143;45.456;11.064;2023-11-21T00:56:08;10.05;74.20
68746;SHT31;73143;45.456;11.064;2023-11-21T00:58:46;10.06;74.27
68746;SHT31;73143;45.456;11.064;2023-11-21T01:01:23;10.07;74.38
68746;SHT31;73143;45.456;11.064;2023-11-21T01:04:00;10.06;74.53
68746;SHT31;73143;45.456;11.064;2023-11-21T01:06:39;10.06;74.65
68746;SHT31;73143;45.456;11.064;2023-11-21T01:09:16;10.06;74.81
68746;SHT31;73143;45.456;11.064;2023-11-21T01:11:53;10.06;74.89
68746;SHT31;73143;45.456;11.064;2023-11-21T01:14:30;10.07;74.93
68746;SHT31;73143;45.456;11.064;2023-11-21T01:17:09;10.08;74.98
68746;SHT31;73143;45.456;11.064;2023-11-21T01:19:46;10.09;74.91
68746;SHT31;73143;45.456;11.064;2023-11-21T01:22:21;10.10;74.93
68746;SHT31;73143;45.456;11.064;2023-11-21T01:24:58;10.13;74.82
68746;SHT31;73143;45.456;11.064;2023-11-21T01:27:36;10.13;74.85
68746;SHT31;73143;45.456;11.064;2023-11-21T01:30:13;10.14;74.94
68746;SHT31;73143;45.456;11.064;2023-11-21T01:32:51;10.15;75.01
68746;SHT31;73143;45.456;11.064;2023-11-21T01:35:27;10.15;75.27
68746;SHT31;73143;45.456;11.064;2023-11-21T01:38:04;10.13;75.41
68746;SHT31;73143;45.456;11.064;2023-11-21T01:40:41;10.13;75.51
68746;SHT31;73143;45.456;11.064;2023-11-21T01:43:19;10.12;75.68
68746;SHT31;73143;45.456;11.064;2023-11-21T01:45:56;10.08;75.75
68746;SHT31;73143;45.456;11.064;2023-11-21T01:48:34;10.05;75.80
68746;SHT31;73143;45.456;11.064;2023-11-21T01:51:12;10.03;75.90
68746;SHT31;73143;45.456;11.064;2023-11-21T01:53:49;10.04;75.89
68746;SHT31;73143;45.456;11.064;2023-11-21T01:56:26;10.05;75.82
68746;SHT31;73143;45.456;11.064;2023-11-21T01:59:03;10.06;75.88
68746;SHT31;73143;45.456;11.064;2023-11-21T02:01:41;10.07;76.01
68746;SHT31;73143;45.456;11.064;2023-11-21T02:04:19;10.09;76.06
68746;SHT31;73143;45.456;11.064;2023-11-21T02:06:57;10.08;76.11
68746;SHT31;73143;45.456;11.064;2023-11-21T02:09:36;10.09;76.20
68746;SHT31;73143;45.456;11.064;2023-11-21T02:12:14;10.09;76.27
68746;SHT31;73143;45.456;11.064;2023-11-21T02:14:50;10.08;76.36
68746;SHT31;73143;45.456;11.064;2023-11-21T02:17:29;10.06;76.49
68746;SHT31;73143;45.456;11.064;2023-11-21T02:20:11;10.03;76.50
68746;SHT31;73143;45.456;11.064;2023-11-21T02:22:50;10.01;76.53
68746;SHT31;73143;45.456;11.064;2023-11-21T02:25:29;10.01;76.60
68746;SHT31;73143;45.456;11.064;2023-11-21T02:28:07;9.99;76.57
68746;SHT31;73143;45.456;11.064;2023-11-21T02:30:45;10.01;76.51
68746;SHT31;73143;45.456;11.064;2023-11-21T02:33:24;10.04;76.39
68746;SHT31;73143;45.456;11.064;2023-11-21T02:36:03;10.06;76.22
68746;SHT31;73143;45.456;11.064;2023-11-21T02:38:44;10.09;76.02
68746;SHT31;73143;45.456;11.064;2023-11-21T02:41:21;10.11;75.89
68746;SHT31;73143;45.456;11.064;2023-11-21T02:43:57;10.14;75.92
68746;SHT31;73143;45.456;11.064;2023-11-21T02:46:35;10.15;75.90
68746;SHT31;73143;45.456;11.064;2023-11-21T02:49:11;10.16;75.83
68746;SHT31;73143;45.456;11.064;2023-11-21T02:51:49;10.18;75.80
68746;SHT31;73143;45.456;11.064;2023-11-21T02:54:28;10.20;75.58
68746;SHT31;73143;45.456;11.064;2023-11-21T02:57:06;10.21;75.44
68746;SHT31;73143;45.456;11.064;2023-11-21T02:59:43;10.23;75.29
68746;SHT31;73143;45.456;11.064;2023-11-21T03:02:20;10.26;75.22
68746;SHT31;73143;45.456;11.064;2023-11-21T03:04:57;10.26;75.68
68746;SHT31;73143;45.456;11.064;2023-11-21T03:07:35;10.22;76.09
68746;SHT31;73143;45.456;11.064;2023-11-21T03:10:12;10.18;76.33
68746;SHT31;73143;45.456;11.064;2023-11-21T03:12:51;10.15;76.50
68746;SHT31;73143;45.456;11.064;2023-11-21T03:15:28;10.14;76.54
68746;SHT31;73143;45.456;11.064;2023-11-21T03:18:05;10.14;76.59
68746;SHT31;73143;45.456;11.064;2023-11-21T03:20:43;10.16;76.59
68746;SHT31;73143;45.456;11.064;2023-11-21T03:23:20;10.18;76.50
68746;SHT31;73143;45.456;11.064;2023-11-21T03:25:57;10.19;76.43
68746;SHT31;73143;45.456;11.064;2023-11-21T03:28:33;10.19;76.42
68746;SHT31;73143;45.456;11.064;2023-11-21T03:31:10;10.21;76.40
68746;SHT31;73143;45.456;11.064;2023-11-21T03:33:48;10.23;76.29
68746;SHT31;73143;45.456;11.064;2023-11-21T03:36:26;10.26;76.20
68746;SHT31;73143;45.456;11.064;2023-11-21T03:39:02;10.26;76.27
68746;SHT31;73143;45.456;11.064;2023-11-21T03:41:39;10.26;76.24
68746;SHT31;73143;45.456;11.064;2023-11-21T03:44:17;10.27;76.02
68746;SHT31;73143;45.456;11.064;2023-11-21T03:46:55;10.27;75.83
68746;SHT31;73143;45.456;11.064;2023-11-21T03:49:32;10.25;75.81
68746;SHT31;73143;45.456;11.064;2023-11-21T03:52:08;10.24;75.90
68746;SHT31;73143;45.456;11.064;2023-11-21T03:54:45;10.23;75.81
68746;SHT31;73143;45.456;11.064;2023-11-21T03:57:22;10.20;75.81
68746;SHT31;73143;45.456;11.064;2023-11-21T04:00:03;10.21;76.03
68746;SHT31;73143;45.456;11.064;2023-11-21T04:02:47;10.19;76.17
68746;SHT31;73143;45.456;11.064;2023-11-21T04:05:23;10.12;76.57
68746;SHT31;73143;45.456;11.064;2023-11-21T04:08:01;10.03;76.83
68746;SHT31;73143;45.456;11.064;2023-11-21T04:10:38;9.95;76.97
68746;SHT31;73143;45.456;11.064;2023-11-21T04:13:15;9.92;77.16
68746;SHT31;73143;45.456;11.064;2023-11-21T04:15:51;9.89;77.19
68746;SHT31;73143;45.456;11.064;2023-11-21T04:18:27;9.88;77.23
68746;SHT31;73143;45.456;11.064;2023-11-21T04:21:05;9.87;77.27
68746;SHT31;73143;45.456;11.064;2023-11-21T04:23:42;9.88;77.37
68746;SHT31;73143;45.456;11.064;2023-11-21T04:26:19;9.87;77.32
68746;SHT31;73143;45.456;11.064;2023-11-21T04:28:55;9.82;77.31
68746;SHT31;73143;45.456;11.064;2023-11-21T04:31:32;9.79;77.26
68746;SHT31;73143;45.456;11.064;2023-11-21T04:34:09;9.76;76.83
68746;SHT31;73143;45.456;11.064;2023-11-21T04:36:45;9.72;76.29
68746;SHT31;73143;45.456;11.064;2023-11-21T04:39:23;9.66;76.02
68746;SHT31;73143;45.456;11.064;2023-11-21T04:42:00;9.61;76.02
68746;SHT31;73143;45.456;11.064;2023-11-21T04:44:39;9.57;75.85
68746;SHT31;73143;45.456;11.064;2023-11-21T04:47:16;9.52;75.51
68746;SHT31;73143;45.456;11.064;2023-11-21T04:49:54;9.46;75.28
68746;SHT31;73143;45.456;11.064;2023-11-21T04:52:31;9.41;75.16
68746;SHT31;73143;45.456;11.064;2023-11-21T04:55:09;9.39;75.00
68746;SHT31;73143;45.456;11.064;2023-11-21T04:57:47;9.37;74.77
68746;SHT31;73143;45.456;11.064;2023-11-21T05:00:23;9.33;74.67
68746;SHT31;73143;45.456;11.064;2023-11-21T05:03:01;9.32;74.57
68746;SHT31;73143;45.456;11.064;2023-11-21T05:05:38;9.29;74.38
68746;SHT31;73143;45.456;11.064;2023-11-21T05:08:16;9.28;74.27
68746;SHT31;73143;45.456;11.064;2023-11-21T05:10:52;9.25;74.10
68746;SHT31;73143;45.456;11.064;2023-11-21T05:13:29;9.24;74.02
68746;SHT31;73143;45.456;11.064;2023-11-21T05:16:09;9.24;74.09
68746;SHT31;73143;45.456;11.064;2023-11-21T05:18:47;9.25;73.95
68746;SHT31;73143;45.456;11.064;2023-11-21T05:21:28;9.26;73.79
68746;SHT31;73143;45.456;11.064;2023-11-21T05:24:08;9.26;73.65
68746;SHT31;73143;45.456;11.064;2023-11-21T05:26:48;9.26;73.52
68746;SHT31;73143;45.456;11.064;2023-11-21T05:29:25;9.24;73.41
68746;SHT31;73143;45.456;11.064;2023-11-21T05:32:01;9.23;73.40
68746;SHT31;73143;45.456;11.064;2023-11-21T05:34:40;9.21;73.31
68746;SHT31;73143;45.456;11.064;2023-11-21T05:37:17;9.19;73.26
68746;SHT31;73143;45.456;11.064;2023-11-21T05:39:55;9.14;73.36
68746;SHT31;73143;45.456;11.064;2023-11-21T05:42:35;9.12;73.31
68746;SHT31;73143;45.456;11.064;2023-11-21T05:45:13;9.11;73.22
68746;SHT31;73143;45.456;11.064;2023-11-21T05:47:50;9.10;73.12
68746;SHT31;73143;45.456;11.064;2023-11-21T05:50:27;9.09;73.05
68746;SHT31;73143;45.456;11.064;2023-11-21T05:53:04;9.11;72.97
68746;SHT31;73143;45.456;11.064;2023-11-21T05:55:41;9.10;72.80
68746;SHT31;73143;45.456;11.064;2023-11-21T05:58:18;9.10;72.78
68746;SHT31;73143;45.456;11.064;2023-11-21T06:00:55;9.07;72.74
68746;SHT31;73143;45.456;11.064;2023-11-21T06:03:33;9.06;72.75
68746;SHT31;73143;45.456;11.064;2023-11-21T06:06:11;9.05;72.84
68746;SHT31;73143;45.456;11.064;2023-11-21T06:08:48;9.05;72.90
68746;SHT31;73143;45.456;11.064;2023-11-21T06:11:25;9.05;72.86
68746;SHT31;73143;45.456;11.064;2023-11-21T06:14:02;9.05;72.84
68746;SHT31;73143;45.456;11.064;2023-11-21T06:16:40;9.05;72.81
68746;SHT31;73143;45.456;11.064;2023-11-21T06:19:16;9.04;72.80
68746;SHT31;73143;45.456;11.064;2023-11-21T06:21:53;9.04;72.70
68746;SHT31;73143;45.456;11.064;2023-11-21T06:24:30;9.04;72.70
68746;SHT31;73143;45.456;11.064;2023-11-21T06:27:07;9.04;72.71
68746;SHT31;73143;45.456;11.064;2023-11-21T06:29:45;9.05;72.70
68746;SHT31;73143;45.456;11.064;2023-11-21T06:32:22;9.06;72.62
68746;SHT31;73143;45.456;11.064;2023-11-21T06:35:00;9.07;72.63
68746;SHT31;73143;45.456;11.064;2023-11-21T06:37:40;9.07;72.62
68746;SHT31;73143;45.456;11.064;2023-11-21T06:40:18;9.08;72.49
68746;SHT31;73143;45.456;11.064;2023-11-21T06:42:56;9.09;72.41
68746;SHT31;73143;45.456;11.064;2023-11-21T06:45:34;9.09;72.50
68746;SHT31;73143;45.456;11.064;2023-11-21T06:48:10;9.10;72.53
68746;SHT31;73143;45.456;11.064;2023-11-21T06:50:48;9.09;72.68
68746;SHT31;73143;45.456;11.064;2023-11-21T06:53:24;9.08;72.95
68746;SHT31;73143;45.456;11.064;2023-11-21T06:56:14;9.06;72.90
68746;SHT31;73143;45.456;11.064;2023-11-21T06:58:51;9.05;73.08
68746;SHT31;73143;45.456;11.064;2023-11-21T07:01:28;9.03;73.33
68746;SHT31;73143;45.456;11.064;2023-11-21T07:04:08;8.99;73.58
68746;SHT31;73143;45.456;11.064;2023-11-21T07:06:45;8.89;73.92
68746;SHT31;73143;45.456;11.064;2023-11-21T07:09:22;8.85;74.05
68746;SHT31;73143;45.456;11.064;2023-11-21T07:11:59;8.88;73.90
68746;SHT31;73143;45.456;11.064;2023-11-21T07:14:37;8.92;73.66
68746;SHT31;73143;45.456;11.064;2023-11-21T07:17:14;8.97;73.54
68746;SHT31;73143;45.456;11.064;2023-11-21T07:19:53;8.97;73.59
68746;SHT31;73143;45.456;11.064;2023-11-21T07:22:29;8.98;73.88
68746;SHT31;73143;45.456;11.064;2023-11-21T07:25:08;8.98;74.00
68746;SHT31;73143;45.456;11.064;2023-11-21T07:27:45;9.00;74.00
68746;SHT31;73143;45.456;11.064;2023-11-21T07:30:22;9.02;73.92
68746;SHT31;73143;45.456;11.064;2023-11-21T07:32:58;9.02;73.98
68746;SHT31;73143;45.456;11.064;2023-11-21T07:35:35;8.99;73.89
68746;SHT31;73143;45.456;11.064;2023-11-21T07:38:12;8.94;73.96
68746;SHT31;73143;45.456;11.064;2023-11-21T07:40:50;8.94;74.10
68746;SHT31;73143;45.456;11.064;2023-11-21T07:43:27;8.95;74.17
68746;SHT31;73143;45.456;11.064;2023-11-21T07:46:04;8.91;74.19
68746;SHT31;73143;45.456;11.064;2023-11-21T07:48:42;8.85;74.36
68746;SHT31;73143;45.456;11.064;2023-11-21T07:51:22;8.83;74.47
68746;SHT31;73143;45.456;11.064;2023-11-21T07:53:59;8.83;74.48
68746;SHT31;73143;45.456;11.064;2023-11-21T07:56:37;8.85;74.29
68746;SHT31;73143;45.456;11.064;2023-11-21T07:59:14;8.86;74.12
68746;SHT31;73143;45.456;11.064;2023-11-21T08:01:52;8.88;74.20
68746;SHT31;73143;45.456;11.064;2023-11-21T08:04:29;8.95;74.17
68746;SHT31;73143;45.456;11.064;2023-11-21T08:07:06;9.05;74.15
68746;SHT31;73143;45.456;11.064;2023-11-21T08:09:42;9.13;74.01
68746;SHT31;73143;45.456;11.064;2023-11-21T08:12:20;9.19;73.82
68746;SHT31;73143;45.456;11.064;2023-11-21T08:14:57;9.23;73.79
68746;SHT31;73143;45.456;11.064;2023-11-21T08:17:35;9.28;73.62
68746;SHT31;73143;45.456;11.064;2023-11-21T08:20:13;9.32;73.51
68746;SHT31;73143;45.456;11.064;2023-11-21T08:22:52;9.36;73.50
68746;SHT31;73143;45.456;11.064;2023-11-21T08:25:28;9.42;73.45
68746;SHT31;73143;45.456;11.064;2023-11-21T08:28:05;9.49;73.41
68746;SHT31;73143;45.456;11.064;2023-11-21T08:30:43;9.59;73.36
68746;SHT31;73143;45.456;11.064;2023-11-21T08:33:21;9.69;73.21
68746;SHT31;73143;45.456;11.064;2023-11-21T08:35:59;9.79;73.16
68746;SHT31;73143;45.456;11.064;2023-11-21T08:38:42;9.87;73.20
68746;SHT31;73143;45.456;11.064;2023-11-21T08:41:21;9.96;73.13
68746;SHT31;73143;45.456;11.064;2023-11-21T08:43:58;10.04;72.93
68746;SHT31;73143;45.456;11.064;2023-11-21T08:46:36;10.10;72.85
68746;SHT31;73143;45.456;11.064;2023-11-21T08:49:13;10.17;72.81
68746;SHT31;73143;45.456;11.064;2023-11-21T08:51:51;10.21;73.01
68746;SHT31;73143;45.456;11.064;2023-11-21T08:54:28;10.26;73.21
68746;SHT31;73143;45.456;11.064;2023-11-21T08:57:06;10.30;73.30
68746;SHT31;73143;45.456;11.064;2023-11-21T08:59:44;10.34;73.27
68746;SHT31;73143;45.456;11.064;2023-11-21T09:02:25;10.40;73.21
68746;SHT31;73143;45.456;11.064;2023-11-21T09:05:02;10.44;73.16
68746;SHT31;73143;45.456;11.064;2023-11-21T09:07:41;10.48;73.30
68746;SHT31;73143;45.456;11.064;2023-11-21T09:10:18;10.52;73.42
68746;SHT31;73143;45.456;11.064;2023-11-21T09:12:54;10.54;73.25
68746;SHT31;73143;45.456;11.064;2023-11-21T09:15:30;10.58;73.25
68746;SHT31;73143;45.456;11.064;2023-11-21T09:18:08;10.61;73.16
68746;SHT31;73143;45.456;11.064;2023-11-21T09:20:46;10.65;73.09
68746;SHT31;73143;45.456;11.064;2023-11-21T09:23:24;10.69;72.86
68746;SHT31;73143;45.456;11.064;2023-11-21T09:26:00;10.71;72.53
68746;SHT31;73143;45.456;11.064;2023-11-21T09:28:39;10.74;72.62
68746;SHT31;73143;45.456;11.064;2023-11-21T09:31:18;10.77;72.60
68746;SHT31;73143;45.456;11.064;2023-11-21T09:33:56;10.80;72.70
68746;SHT31;73143;45.456;11.064;2023-11-21T09:36:33;10.84;72.71
68746;SHT31;73143;45.456;11.064;2023-11-21T09:39:12;10.87;72.56
68746;SHT31;73143;45.456;11.064;2023-11-21T09:41:50;10.89;72.26
68746;SHT31;73143;45.456;11.064;2023-11-21T09:44:43;10.91;72.47
68746;SHT31;73143;45.456;11.064;2023-11-21T09:47:30;10.94;72.40
68746;SHT31;73143;45.456;11.064;2023-11-21T09:50:11;10.96;72.40
68746;SHT31;73143;45.456;11.064;2023-11-21T09:53:03;10.99;72.21
68746;SHT31;73143;45.456;11.064;2023-11-21T09:55:51;11.00;72.38
68746;SHT31;73143;45.456;11.064;2023-11-21T09:58:29;10.99;72.66
68746;SHT31;73143;45.456;11.064;2023-11-21T10:01:08;10.98;72.89
68746;SHT31;73143;45.456;11.064;2023-11-21T10:03:48;10.96;73.23
68746;SHT31;73143;45.456;11.064;2023-11-21T10:06:28;10.94;73.49
68746;SHT31;73143;45.456;11.064;2023-11-21T10:09:07;10.93;73.45
68746;SHT31;73143;45.456;11.064;2023-11-21T10:11:46;10.92;73.40
68746;SHT31;73143;45.456;11.064;2023-11-21T10:14:24;10.90;73.43
68746;SHT31;73143;45.456;11.064;2023-11-21T10:17:01;10.89;73.37
68746;SHT31;73143;45.456;11.064;2023-11-21T10:19:41;10.92;73.18
68746;SHT31;73143;45.456;11.064;2023-11-21T10:22:20;10.94;73.18
68746;SHT31;73143;45.456;11.064;2023-11-21T10:25:01;10.98;72.77
68746;SHT31;73143;45.456;11.064;2023-11-21T10:27:43;11.00;72.47
68746;SHT31;73143;45.456;11.064;2023-11-21T10:30:31;11.02;72.30
68746;SHT31;73143;45.456;11.064;2023-11-21T10:33:09;11.04;72.50
68746;SHT31;73143;45.456;11.064;2023-11-21T10:35:47;11.02;72.65
68746;SHT31;73143;45.456;11.064;2023-11-21T10:38:24;11.01;72.88
68746;SHT31;73143;45.456;11.064;2023-11-21T10:41:07;10.99;72.99
68746;SHT31;73143;45.456;11.064;2023-11-21T10:43:49;10.99;73.13
68746;SHT31;73143;45.456;11.064;2023-11-21T10:46:29;10.97;73.30
68746;SHT31;73143;45.456;11.064;2023-11-21T10:49:07;10.96;73.40
68746;SHT31;73143;45.456;11.064;2023-11-21T10:51:45;10.95;73.30
68746;SHT31;73143;45.456;11.064;2023-11-21T10:54:24;10.93;73.28
68746;SHT31;73143;45.456;11.064;2023-11-21T10:57:01;10.92;73.17
68746;SHT31;73143;45.456;11.064;2023-11-21T10:59:44;10.90;73.30
68746;SHT31;73143;45.456;11.064;2023-11-21T11:02:23;10.90;73.43
68746;SHT31;73143;45.456;11.064;2023-11-21T11:05:04;10.88;73.56
68746;SHT31;73143;45.456;11.064;2023-11-21T11:07:42;10.88;73.75
68746;SHT31;73143;45.456;11.064;2023-11-21T11:10:23;10.86;73.89
68746;SHT31;73143;45.456;11.064;2023-11-21T11:13:01;10.87;73.90
68746;SHT31;73143;45.456;11.064;2023-11-21T11:15:45;10.88;73.98
68746;SHT31;73143;45.456;11.064;2023-11-21T11:18:31;10.88;74.16
68746;SHT31;73143;45.456;11.064;2023-11-21T11:21:11;10.90;74.13
68746;SHT31;73143;45.456;11.064;2023-11-21T11:24:20;10.93;74.10
68746;SHT31;73143;45.456;11.064;2023-11-21T11:27:21;10.96;74.15
68746;SHT31;73143;45.456;11.064;2023-11-21T11:30:11;10.98;74.19
68746;SHT31;73143;45.456;11.064;2023-11-21T11:33:11;10.99;74.20
68746;SHT31;73143;45.456;11.064;2023-11-21T11:36:06;10.99;74.26
68746;SHT31;73143;45.456;11.064;2023-11-21T11:38:54;10.99;74.33
68746;SHT31;73143;45.456;11.064;2023-11-21T11:41:32;11.02;74.26
68746;SHT31;73143;45.456;11.064;2023-11-21T11:44:45;11.04;74.35
68746;SHT31;73143;45.456;11.064;2023-11-21T11:47:27;11.05;74.42
68746;SHT31;73143;45.456;11.064;2023-11-21T11:50:09;11.06;74.49
68746;SHT31;73143;45.456;11.064;2023-11-21T11:52:49;11.08;74.45
68746;SHT31;73143;45.456;11.064;2023-11-21T11:55:26;11.09;74.50
68746;SHT31;73143;45.456;11.064;2023-11-21T11:58:05;11.11;74.68
68746;SHT31;73143;45.456;11.064;2023-11-21T12:00:42;11.12;74.92
68746;SHT31;73143;45.456;11.064;2023-11-21T12:03:22;11.12;74.97
68746;SHT31;73143;45.456;11.064;2023-11-21T12:06:00;11.13;74.84
68746;SHT31;73143;45.456;11.064;2023-11-21T12:08:41;11.12;74.81
68746;SHT31;73143;45.456;11.064;2023-11-21T12:11:19;11.14;74.80
68746;SHT31;73143;45.456;11.064;2023-11-21T12:14:05;11.14;74.80
68746;SHT31;73143;45.456;11.064;2023-11-21T12:16:44;11.15;74.78
68746;SHT31;73143;45.456;11.064;2023-11-21T12:19:21;11.16;74.77
68746;SHT31;73143;45.456;11.064;2023-11-21T12:21:58;11.20;74.79
68746;SHT31;73143;45.456;11.064;2023-11-21T12:24:44;11.22;74.79
68746;SHT31;73143;45.456;11.064;2023-11-21T12:27:20;11.25;74.70
68746;SHT31;73143;45.456;11.064;2023-11-21T12:30:00;11.29;74.70
68746;SHT31;73143;45.456;11.064;2023-11-21T12:32:43;11.33;74.78
68746;SHT31;73143;45.456;11.064;2023-11-21T12:35:22;11.37;74.98
68746;SHT31;73143;45.456;11.064;2023-11-21T12:38:03;11.41;75.16
68746;SHT31;73143;45.456;11.064;2023-11-21T12:40:40;11.47;75.28
68746;SHT31;73143;45.456;11.064;2023-11-21T12:43:17;11.53;75.39
68746;SHT31;73143;45.456;11.064;2023-11-21T12:46:05;11.58;75.35
68746;SHT31;73143;45.456;11.064;2023-11-21T12:48:46;11.65;75.30
68746;SHT31;73143;45.456;11.064;2023-11-21T12:51:24;11.71;75.20
68746;SHT31;73143;45.456;11.064;2023-11-21T12:54:00;11.83;74.68
68746;SHT31;73143;45.456;11.064;2023-11-21T12:56:39;11.92;74.38
68746;SHT31;73143;45.456;11.064;2023-11-21T12:59:20;11.98;74.01
68746;SHT31;73143;45.456;11.064;2023-11-21T13:01:57;12.04;73.83
68746;SHT31;73143;45.456;11.064;2023-11-21T13:04:37;12.16;73.36
68746;SHT31;73143;45.456;11.064;2023-11-21T13:07:20;12.34;72.28
68746;SHT31;73143;45.456;11.064;2023-11-21T13:09:58;12.53;71.34
68746;SHT31;73143;45.456;11.064;2023-11-21T13:12:37;12.68;70.40
68746;SHT31;73143;45.456;11.064;2023-11-21T13:15:21;12.82;70.00
68746;SHT31;73143;45.456;11.064;2023-11-21T13:18:00;12.89;69.88
68746;SHT31;73143;45.456;11.064;2023-11-21T13:20:40;12.94;69.44
68746;SHT31;73143;45.456;11.064;2023-11-21T13:23:20;12.98;69.45
68746;SHT31;73143;45.456;11.064;2023-11-21T13:25:59;13.05;68.82
68746;SHT31;73143;45.456;11.064;2023-11-21T13:28:36;13.10;68.50
68746;SHT31;73143;45.456;11.064;2023-11-21T13:31:16;13.15;67.64
68746;SHT31;73143;45.456;11.064;2023-11-21T13:33:55;13.23;66.85
68746;SHT31;73143;45.456;11.064;2023-11-21T13:36:37;13.28;66.46
68746;SHT31;73143;45.456;11.064;2023-11-21T13:39:14;13.30;66.02
68746;SHT31;73143;45.456;11.064;2023-11-21T13:41:52;13.38;65.32
68746;SHT31;73143;45.456;11.064;2023-11-21T13:44:29;13.43;65.43
68746;SHT31;73143;45.456;11.064;2023-11-21T13:47:07;13.44;65.51
68746;SHT31;73143;45.456;11.064;2023-11-21T13:49:44;13.46;64.77
68746;SHT31;73143;45.456;11.064;2023-11-21T13:52:21;13.46;64.93
68746;SHT31;73143;45.456;11.064;2023-11-21T13:55:02;13.46;65.15
68746;SHT31;73143;45.456;11.064;2023-11-21T13:57:45;13.44;64.26
68746;SHT31;73143;45.456;11.064;2023-11-21T14:00:24;13.52;63.53
68746;SHT31;73143;45.456;11.064;2023-11-21T14:03:14;13.56;63.57
68746;SHT31;73143;45.456;11.064;2023-11-21T14:05:51;13.57;63.62
68746;SHT31;73143;45.456;11.064;2023-11-21T14:08:30;13.57;63.82
68746;SHT31;73143;45.456;11.064;2023-11-21T14:11:07;13.56;63.97
68746;SHT31;73143;45.456;11.064;2023-11-21T14:13:47;13.55;63.68
68746;SHT31;73143;45.456;11.064;2023-11-21T14:16:23;13.56;63.19
68746;SHT31;73143;45.456;11.064;2023-11-21T14:18:59;13.60;62.84
68746;SHT31;73143;45.456;11.064;2023-11-21T14:21:44;13.61;62.79
68746;SHT31;73143;45.456;11.064;2023-11-21T14:24:22;13.63;62.70
68746;SHT31;73143;45.456;11.064;2023-11-21T14:27:01;13.65;62.83
68746;SHT31;73143;45.456;11.064;2023-11-21T14:29:39;13.65;62.70
68746;SHT31;73143;45.456;11.064;2023-11-21T14:32:16;13.65;62.98
68746;SHT31;73143;45.456;11.064;2023-11-21T14:34:54;13.65;62.87
68746;SHT31;73143;45.456;11.064;2023-11-21T14:37:33;13.64;63.03
68746;SHT31;73143;45.456;11.064;2023-11-21T14:40:12;13.63;63.26
68746;SHT31;73143;45.456;11.064;2023-11-21T14:42:53;13.61;63.53
68746;SHT31;73143;45.456;11.064;2023-11-21T14:45:30;13.58;63.70
68746;SHT31;73143;45.456;11.064;2023-11-21T14:48:08;13.56;63.90
68746;SHT31;73143;45.456;11.064;2023-11-21T14:50:55;13.52;63.78
68746;SHT31;73143;45.456;11.064;2023-11-21T14:53:51;13.51;63.76
68746;SHT31;73143;45.456;11.064;2023-11-21T14:56:35;13.51;63.58
68746;SHT31;73143;45.456;11.064;2023-11-21T14:59:14;13.53;63.16
68746;SHT31;73143;45.456;11.064;2023-11-21T15:01:53;13.53;63.23
68746;SHT31;73143;45.456;11.064;2023-11-21T15:04:44;13.53;62.88
68746;SHT31;73143;45.456;11.064;2023-11-21T15:07:22;13.52;62.86
68746;SHT31;73143;45.456;11.064;2023-11-21T15:10:00;13.53;62.67
68746;SHT31;73143;45.456;11.064;2023-11-21T15:12:44;13.53;62.01
68746;SHT31;73143;45.456;11.064;2023-11-21T15:15:21;13.55;61.56
68746;SHT31;73143;45.456;11.064;2023-11-21T15:17:59;13.57;61.36
68746;SHT31;73143;45.456;11.064;2023-11-21T15:20:37;13.58;61.23
68746;SHT31;73143;45.456;11.064;2023-11-21T15:23:16;13.57;61.35
68746;SHT31;73143;45.456;11.064;2023-11-21T15:25:53;13.57;61.12
68746;SHT31;73143;45.456;11.064;2023-11-21T15:28:32;13.58;60.83
68746;SHT31;73143;45.456;11.064;2023-11-21T15:31:09;13.59;61.10
68746;SHT31;73143;45.456;11.064;2023-11-21T15:33:50;13.57;61.22
68746;SHT31;73143;45.456;11.064;2023-11-21T15:36:28;13.56;61.25
68746;SHT31;73143;45.456;11.064;2023-11-21T15:39:06;13.55;60.81
68746;SHT31;73143;45.456;11.064;2023-11-21T15:41:42;13.56;61.04
68746;SHT31;73143;45.456;11.064;2023-11-21T15:44:20;13.53;61.23
68746;SHT31;73143;45.456;11.064;2023-11-21T15:46:57;13.50;60.98
68746;SHT31;73143;45.456;11.064;2023-11-21T15:49:38;13.48;60.99
68746;SHT31;73143;45.456;11.064;2023-11-21T15:52:18;13.48;60.77
68746;SHT31;73143;45.456;11.064;2023-11-21T15:54:55;13.47;60.96
68746;SHT31;73143;45.456;11.064;2023-11-21T15:57:32;13.46;60.86
68746;SHT31;73143;45.456;11.064;2023-11-21T16:00:10;13.44;61.36
68746;SHT31;73143;45.456;11.064;2023-11-21T16:02:54;13.40;61.38
68746;SHT31;73143;45.456;11.064;2023-11-21T16:05:31;13.38;61.28
68746;SHT31;73143;45.456;11.064;2023-11-21T16:08:08;13.39;61.20
68746;SHT31;73143;45.456;11.064;2023-11-21T16:10:46;13.38;61.63
68746;SHT31;73143;45.456;11.064;2023-11-21T16:13:24;13.34;61.70
68746;SHT31;73143;45.456;11.064;2023-11-21T16:16:03;13.32;61.56
68746;SHT31;73143;45.456;11.064;2023-11-21T16:18:43;13.30;61.47
68746;SHT31;73143;45.456;11.064;2023-11-21T16:21:20;13.31;61.38
68746;SHT31;73143;45.456;11.064;2023-11-21T16:23:58;13.28;61.40
68746;SHT31;73143;45.456;11.064;2023-11-21T16:26:37;13.27;61.47
68746;SHT31;73143;45.456;11.064;2023-11-21T16:29:18;13.26;61.17
68746;SHT31;73143;45.456;11.064;2023-11-21T16:31:54;13.28;60.86